createdAt,value
2023-02-17T00:00:58.213Z,1.07
2023-02-17T00:03:25.662Z,1.20
2023-02-17T00:05:53.365Z,1.23
2023-02-17T00:08:20.588Z,1.20
2023-02-17T00:10:57.052Z,1.20
2023-02-17T00:13:24.266Z,1.20
2023-02-17T00:15:51.577Z,1.13
2023-02-17T00:18:18.725Z,1.00
2023-02-17T00:20:45.912Z,1.03
2023-02-17T00:23:13.448Z,1.27
2023-02-17T00:25:40.892Z,1.00
2023-02-17T00:28:08.239Z,0.90
2023-02-17T00:30:37.110Z,0.90
2023-02-17T00:33:04.285Z,1.10
2023-02-17T00:35:31.566Z,0.70
2023-02-17T00:37:58.723Z,1.20
2023-02-17T00:40:25.930Z,1.10
2023-02-17T00:42:54.934Z,1.27
2023-02-17T00:45:22.173Z,0.90
2023-02-17T00:47:49.338Z,1.00
2023-02-17T00:50:16.671Z,0.77
2023-02-17T00:52:43.845Z,1.00
2023-02-17T00:55:11.005Z,1.20
2023-02-17T00:57:38.155Z,0.90
2023-02-17T01:00:06.490Z,1.13
2023-02-17T01:02:33.789Z,0.97
2023-02-17T01:05:01.029Z,1.10
2023-02-17T01:07:28.205Z,1.20
2023-02-17T01:09:55.386Z,0.90
2023-02-17T01:12:22.505Z,1.10
2023-02-17T01:14:49.749Z,1.20
2023-02-17T01:17:16.889Z,0.90
2023-02-17T01:19:44.141Z,1.27
2023-02-17T01:22:11.385Z,1.10
2023-02-17T01:24:39.476Z,1.70
2023-02-17T01:27:09.707Z,1.33
2023-02-17T01:29:36.872Z,1.60
2023-02-17T01:32:04.205Z,1.03
2023-02-17T01:34:31.408Z,1.20
2023-02-17T01:36:58.539Z,1.00
2023-02-17T01:39:25.698Z,1.00
2023-02-17T01:41:52.875Z,1.03
2023-02-17T01:44:23.162Z,1.10
2023-02-17T01:46:55.804Z,1.00
2023-02-17T01:49:25.823Z,1.43
2023-02-17T01:51:59.988Z,1.50
2023-02-17T01:54:34.114Z,1.17
2023-02-17T01:57:02.766Z,1.10
2023-02-17T01:59:31.213Z,1.20
2023-02-17T02:02:02.535Z,1.47
2023-02-17T02:04:33.641Z,1.40
2023-02-17T02:07:01.002Z,0.90
2023-02-17T02:09:41.074Z,0.93
2023-02-17T02:12:23.431Z,0.77
2023-02-17T02:14:51.647Z,1.30
2023-02-17T02:17:30.781Z,1.00
2023-02-17T02:20:06.901Z,0.97
2023-02-17T02:23:00.753Z,1.20
2023-02-17T02:25:45.989Z,1.10
2023-02-17T02:28:49.945Z,1.27
2023-02-17T02:31:34.340Z,1.07
2023-02-17T02:34:15.453Z,1.20
2023-02-17T02:37:18.315Z,0.90
2023-02-17T02:39:49.208Z,1.17
2023-02-17T02:42:23.233Z,1.07
2023-02-17T02:44:50.548Z,1.00
2023-02-17T02:47:42.557Z,0.90
2023-02-17T02:50:12.820Z,1.30
2023-02-17T02:52:43.029Z,1.33
2023-02-17T02:55:36.117Z,0.97
2023-02-17T02:58:38.545Z,1.10
2023-02-17T03:01:14.000Z,1.10
2023-02-17T03:04:04.989Z,1.10
2023-02-17T03:06:39.825Z,1.13
2023-02-17T03:09:19.584Z,1.10
2023-02-17T03:11:47.590Z,1.50
2023-02-17T03:14:18.162Z,1.50
2023-02-17T03:16:46.731Z,1.40
2023-02-17T03:19:16.812Z,1.30
2023-02-17T03:22:07.248Z,1.10
2023-02-17T03:24:35.113Z,1.00
2023-02-17T03:27:02.317Z,1.10
2023-02-17T03:29:29.439Z,0.80
2023-02-17T03:31:57.078Z,1.10
2023-02-17T03:34:24.269Z,1.23
2023-02-17T03:36:51.431Z,0.80
2023-02-17T03:39:18.591Z,1.00
2023-02-17T03:41:45.968Z,1.40
2023-02-17T03:44:13.187Z,0.80
2023-02-17T03:46:41.069Z,1.20
2023-02-17T03:49:08.205Z,1.27
2023-02-17T03:51:35.472Z,0.87
2023-02-17T03:54:02.623Z,0.90
2023-02-17T03:56:29.913Z,0.80
2023-02-17T03:58:57.272Z,1.17
2023-02-17T04:01:24.668Z,0.80
2023-02-17T04:03:52.023Z,1.13
2023-02-17T04:06:19.205Z,1.20
2023-02-17T04:08:46.465Z,1.10
2023-02-17T04:11:13.959Z,1.17
2023-02-17T04:13:41.182Z,1.23
2023-02-17T04:16:10.198Z,1.00
2023-02-17T04:18:38.423Z,1.13
2023-02-17T04:21:06.046Z,1.03
2023-02-17T04:23:37.617Z,0.70
2023-02-17T04:26:07.442Z,0.90
2023-02-17T04:28:37.810Z,0.97
2023-02-17T04:31:05.247Z,1.13
2023-02-17T04:33:32.550Z,1.10
2023-02-17T04:35:59.828Z,0.90
2023-02-17T04:38:32.281Z,0.90
2023-02-17T04:41:00.644Z,0.80
2023-02-17T04:43:28.847Z,0.80
2023-02-17T04:45:56.682Z,0.90
2023-02-17T04:48:24.654Z,1.20
2023-02-17T04:50:52.140Z,1.23
2023-02-17T04:53:19.951Z,1.03
2023-02-17T04:55:53.050Z,0.87
2023-02-17T04:58:20.765Z,0.90
2023-02-17T05:00:49.979Z,0.87
2023-02-17T05:03:18.802Z,1.00
2023-02-17T05:05:46.250Z,0.77
2023-02-17T05:08:13.409Z,0.80
2023-02-17T05:10:40.528Z,0.90
2023-02-17T05:13:07.764Z,1.70
2023-02-17T05:15:35.264Z,1.50
2023-02-17T05:18:02.889Z,2.60
2023-02-17T05:20:30.182Z,2.70
2023-02-17T05:22:57.326Z,2.20
2023-02-17T05:25:24.487Z,2.50
2023-02-17T05:27:51.802Z,2.67
2023-02-17T05:30:19.353Z,2.90
2023-02-17T05:32:46.626Z,2.87
2023-02-17T05:35:13.844Z,2.80
2023-02-17T05:37:41.049Z,2.30
2023-02-17T05:40:09.054Z,2.47
2023-02-17T05:42:36.209Z,2.37
2023-02-17T05:45:04.254Z,1.90
2023-02-17T05:47:31.397Z,1.83
2023-02-17T05:49:58.582Z,1.37
2023-02-17T05:52:25.730Z,1.03
2023-02-17T05:54:52.888Z,1.53
2023-02-17T05:57:20.032Z,1.30
2023-02-17T05:59:47.190Z,1.37
2023-02-17T06:02:14.338Z,1.10
2023-02-17T06:04:41.732Z,1.50
2023-02-17T06:07:08.954Z,1.37
2023-02-17T06:09:36.091Z,2.00
2023-02-17T06:12:03.523Z,1.60
2023-02-17T06:14:30.807Z,2.07
2023-02-17T06:16:59.991Z,1.47
2023-02-17T06:19:28.172Z,1.70
2023-02-17T06:21:57.085Z,1.77
2023-02-17T06:24:24.870Z,2.10
2023-02-17T06:26:52.018Z,1.43
2023-02-17T06:29:19.226Z,1.53
2023-02-17T06:31:46.540Z,1.70
2023-02-17T06:34:13.894Z,2.07
2023-02-17T06:36:41.157Z,1.33
2023-02-17T06:39:08.313Z,1.60
2023-02-17T06:41:35.576Z,2.23
2023-02-17T06:44:02.789Z,1.37
2023-02-17T06:46:30.374Z,1.80
2023-02-17T06:48:57.687Z,1.80
2023-02-17T06:51:24.864Z,1.77
2023-02-17T06:53:52.052Z,1.90
2023-02-17T06:56:21.151Z,2.10
2023-02-17T06:58:48.452Z,2.50
2023-02-17T07:01:26.918Z,1.73
2023-02-17T07:03:54.591Z,1.87
2023-02-17T07:06:23.561Z,1.70
2023-02-17T07:08:51.154Z,1.67
2023-02-17T07:11:18.548Z,1.80
2023-02-17T07:13:46.256Z,1.80
2023-02-17T07:16:15.458Z,1.90
2023-02-17T07:18:42.870Z,1.60
2023-02-17T07:21:10.526Z,1.27
2023-02-17T07:23:39.497Z,1.17
2023-02-17T07:26:11.605Z,1.50
2023-02-17T07:28:40.542Z,1.07
2023-02-17T07:31:14.118Z,2.00
2023-02-17T07:33:41.994Z,2.20
2023-02-17T07:36:15.491Z,2.40
2023-02-17T07:38:43.447Z,2.07
2023-02-17T07:41:15.223Z,2.40
2023-02-17T07:43:43.069Z,2.47
2023-02-17T07:46:11.910Z,3.23
2023-02-17T07:48:39.395Z,1.83
2023-02-17T07:51:07.848Z,2.10
2023-02-17T07:53:36.005Z,1.93
2023-02-17T07:56:08.874Z,2.23
2023-02-17T07:58:38.872Z,1.87
2023-02-17T08:01:15.173Z,2.70
2023-02-17T08:03:43.144Z,2.20
2023-02-17T08:06:15.113Z,2.70
2023-02-17T08:09:00.776Z,3.80
2023-02-17T08:11:48.941Z,3.40
2023-02-17T08:14:17.626Z,3.87
2023-02-17T08:16:44.866Z,2.57
2023-02-17T08:19:12.017Z,2.30
2023-02-17T08:21:39.364Z,3.23
2023-02-17T08:24:06.826Z,3.10
2023-02-17T08:26:34.202Z,3.17
2023-02-17T08:29:01.361Z,4.00
2023-02-17T08:31:31.369Z,2.63
2023-02-17T08:34:01.391Z,2.60
2023-02-17T08:36:29.239Z,2.50
2023-02-17T08:38:57.519Z,2.97
2023-02-17T08:41:29.047Z,3.03
2023-02-17T08:43:57.530Z,2.83
2023-02-17T08:46:25.525Z,3.60
2023-02-17T08:48:52.969Z,2.90
2023-02-17T08:51:23.793Z,3.50
2023-02-17T08:53:52.415Z,3.93
2023-02-17T08:56:19.972Z,3.20
2023-02-17T08:58:47.615Z,4.53
2023-02-17T09:01:14.848Z,4.40
2023-02-17T09:03:42.121Z,5.10
2023-02-17T09:06:09.607Z,4.80
2023-02-17T09:08:39.153Z,5.10
2023-02-17T09:11:09.384Z,4.80
2023-02-17T09:13:37.236Z,5.50
2023-02-17T09:16:05.578Z,4.17
2023-02-17T09:18:32.996Z,4.00
2023-02-17T09:21:05.298Z,4.40
2023-02-17T09:23:32.538Z,4.33
2023-02-17T09:26:06.121Z,4.73
2023-02-17T09:28:34.583Z,4.57
2023-02-17T09:31:14.032Z,4.33
2023-02-17T09:33:42.482Z,3.80
2023-02-17T09:36:12.335Z,3.23
2023-02-17T09:38:41.872Z,3.80
2023-02-17T09:41:16.699Z,3.50
2023-02-17T09:43:44.632Z,4.30
2023-02-17T09:46:26.831Z,3.23
2023-02-17T09:48:59.170Z,2.87
2023-02-17T09:52:07.235Z,3.50
2023-02-17T09:55:07.743Z,3.00
2023-02-17T09:58:02.164Z,2.20
2023-02-17T10:00:57.331Z,2.90
2023-02-17T10:03:33.281Z,4.33
2023-02-17T10:06:09.661Z,3.33
2023-02-17T10:08:50.096Z,3.47
2023-02-17T10:11:28.282Z,3.50
2023-02-17T10:14:00.474Z,3.80
2023-02-17T10:16:44.082Z,3.60
2023-02-17T10:19:16.172Z,3.60
2023-02-17T10:21:51.083Z,3.00
2023-02-17T10:24:18.251Z,2.60
2023-02-17T10:27:08.017Z,2.43
2023-02-17T10:29:57.006Z,2.63
2023-02-17T10:32:26.520Z,3.00
2023-02-17T10:35:11.858Z,2.13
2023-02-17T10:38:03.582Z,2.63
2023-02-17T10:40:31.595Z,1.93
2023-02-17T10:43:03.879Z,1.80
2023-02-17T10:45:37.282Z,2.13
2023-02-17T10:48:24.065Z,2.20
2023-02-17T10:50:51.902Z,1.83
2023-02-17T10:53:22.957Z,1.60
2023-02-17T10:55:52.797Z,1.77
2023-02-17T10:58:25.766Z,1.93
2023-02-17T11:00:56.566Z,1.23
2023-02-17T11:03:27.444Z,1.40
2023-02-17T11:06:04.562Z,1.53
2023-02-17T11:08:40.731Z,1.37
2023-02-17T11:11:19.847Z,1.40
2023-02-17T11:14:17.853Z,1.43
2023-02-17T11:16:54.748Z,1.83
2023-02-17T11:19:27.724Z,1.20
2023-02-17T11:21:58.866Z,1.43
2023-02-17T11:24:27.680Z,1.40
2023-02-17T11:27:13.390Z,1.27
2023-02-17T11:29:40.614Z,1.30
2023-02-17T11:32:12.499Z,1.30
2023-02-17T11:34:42.675Z,1.50
2023-02-17T11:37:09.772Z,1.30
2023-02-17T11:39:45.519Z,1.40
2023-02-17T11:42:32.477Z,1.17
2023-02-17T11:45:01.152Z,0.83
2023-02-17T11:47:54.269Z,1.00
2023-02-17T11:50:42.245Z,1.33
2023-02-17T11:53:36.461Z,1.03
2023-02-17T11:56:25.353Z,1.10
2023-02-17T11:59:14.308Z,1.10
2023-02-17T12:01:56.236Z,1.00
2023-02-17T12:04:26.192Z,1.00
2023-02-17T12:07:18.287Z,1.50
2023-02-17T12:10:10.816Z,1.20
2023-02-17T12:12:56.609Z,1.40
2023-02-17T12:15:42.506Z,1.10
2023-02-17T12:18:30.184Z,1.03
2023-02-17T12:21:34.389Z,1.10
2023-02-17T12:24:24.923Z,1.40
2023-02-17T12:27:14.233Z,1.07
2023-02-17T12:30:18.457Z,1.20
2023-02-17T12:32:54.697Z,1.20
2023-02-17T12:35:23.294Z,1.30
2023-02-17T12:38:03.625Z,1.10
2023-02-17T12:40:45.061Z,2.40
2023-02-17T12:43:38.049Z,1.40
2023-02-17T12:46:12.811Z,1.30
2023-02-17T12:49:02.113Z,1.60
2023-02-17T12:51:35.148Z,1.37
2023-02-17T12:54:22.658Z,1.97
2023-02-17T12:57:01.131Z,2.30
2023-02-17T12:59:38.729Z,1.37
2023-02-17T13:02:33.568Z,1.10
2023-02-17T13:05:04.548Z,1.47
2023-02-17T13:07:43.680Z,1.30
2023-02-17T13:10:35.020Z,1.20
2023-02-17T13:13:10.653Z,1.23
2023-02-17T13:15:43.319Z,1.60
2023-02-17T13:18:16.417Z,1.27
2023-02-17T13:20:54.761Z,1.20
2023-02-17T13:23:35.702Z,2.17
2023-02-17T13:26:22.433Z,1.63
2023-02-17T13:28:55.130Z,1.60
2023-02-17T13:31:25.646Z,2.93
2023-02-17T13:33:55.647Z,1.93
2023-02-17T13:36:36.878Z,1.90
2023-02-17T13:39:29.748Z,1.90
2023-02-17T13:41:59.325Z,2.40
2023-02-17T13:44:40.197Z,1.37
2023-02-17T13:47:43.126Z,1.53
2023-02-17T13:50:56.832Z,1.40
2023-02-17T13:53:49.676Z,1.57
2023-02-17T13:56:30.978Z,1.60
2023-02-17T13:59:18.829Z,1.83
2023-02-17T14:01:47.084Z,1.83
2023-02-17T14:04:22.465Z,1.70
2023-02-17T14:06:50.322Z,1.70
2023-02-17T14:09:23.032Z,1.60
2023-02-17T14:11:52.365Z,1.10
2023-02-17T14:14:20.883Z,1.40
2023-02-17T14:17:32.433Z,0.83
2023-02-17T14:20:00.961Z,1.00
2023-02-17T14:22:33.939Z,0.90
2023-02-17T14:25:04.948Z,0.90
2023-02-17T14:27:47.029Z,0.80
2023-02-17T14:30:27.337Z,0.90
2023-02-17T14:33:17.961Z,0.70
2023-02-17T14:35:56.852Z,0.90
2023-02-17T14:38:41.586Z,1.30
2023-02-17T14:41:09.684Z,1.30
2023-02-17T14:43:37.440Z,1.27
2023-02-17T14:46:05.182Z,1.10
2023-02-17T14:48:32.552Z,1.50
2023-02-17T14:51:00.101Z,1.40
2023-02-17T14:53:33.409Z,1.60
2023-02-17T14:56:07.023Z,1.47
2023-02-17T14:58:34.639Z,1.33
2023-02-17T15:01:02.372Z,1.70
2023-02-17T15:03:29.600Z,2.00
2023-02-17T15:05:57.307Z,2.07
2023-02-17T15:08:33.877Z,2.30
2023-02-17T15:11:02.302Z,1.97
2023-02-17T15:13:31.690Z,1.80
2023-02-17T15:15:59.108Z,1.57
2023-02-17T15:18:28.025Z,1.83
2023-02-17T15:20:55.575Z,1.40
2023-02-17T15:23:25.902Z,1.77
2023-02-17T15:25:54.852Z,2.00
2023-02-17T15:28:22.443Z,1.70
2023-02-17T15:30:53.083Z,1.87
2023-02-17T15:33:22.578Z,2.20
2023-02-17T15:35:55.587Z,1.83
2023-02-17T15:38:24.133Z,1.93
2023-02-17T15:40:51.515Z,1.47
2023-02-17T15:43:21.906Z,1.90
2023-02-17T15:45:49.584Z,2.03
2023-02-17T15:48:29.908Z,1.80
2023-02-17T15:50:57.113Z,1.70
2023-02-17T15:53:24.286Z,1.57
2023-02-17T15:55:52.528Z,2.10
2023-02-17T15:58:22.316Z,1.50
2023-02-17T16:00:51.234Z,1.50
2023-02-17T16:03:18.793Z,1.40
2023-02-17T16:05:46.054Z,1.87
2023-02-17T16:08:13.309Z,1.70
2023-02-17T16:10:42.524Z,1.90
2023-02-17T16:13:14.690Z,1.70
2023-02-17T16:15:42.717Z,1.70
2023-02-17T16:18:28.030Z,1.73
2023-02-17T16:20:55.252Z,1.33
2023-02-17T16:23:22.610Z,1.30
2023-02-17T16:25:50.624Z,1.70
2023-02-17T16:28:21.344Z,1.83
2023-02-17T16:30:49.606Z,1.20
2023-02-17T16:33:17.739Z,1.40
2023-02-17T16:35:45.385Z,1.90
2023-02-17T16:38:23.642Z,1.33
2023-02-17T16:40:52.944Z,1.30
2023-02-17T16:43:23.072Z,1.10
2023-02-17T16:46:00.368Z,1.10
2023-02-17T16:48:30.348Z,1.60
2023-02-17T16:50:57.914Z,1.00
2023-02-17T16:53:25.452Z,0.80
2023-02-17T16:55:54.216Z,1.10
2023-02-17T16:58:24.976Z,2.63
2023-02-17T17:00:54.448Z,3.30
2023-02-17T17:03:22.619Z,2.50
2023-02-17T17:05:51.697Z,2.50
2023-02-17T17:08:21.277Z,1.70
2023-02-17T17:10:49.506Z,1.10
2023-02-17T17:13:17.157Z,1.07
2023-02-17T17:15:45.951Z,1.37
2023-02-17T17:18:21.602Z,0.90
2023-02-17T17:20:49.437Z,1.40
2023-02-17T17:23:18.396Z,1.63
2023-02-17T17:25:46.950Z,2.60
2023-02-17T17:28:18.977Z,2.60
2023-02-17T17:30:47.182Z,2.37
2023-02-17T17:33:14.594Z,1.90
2023-02-17T17:35:42.043Z,1.77
2023-02-17T17:38:14.081Z,1.80
2023-02-17T17:40:50.074Z,1.63
2023-02-17T17:43:21.667Z,1.40
2023-02-17T17:45:52.537Z,2.03
2023-02-17T17:48:19.905Z,1.70
2023-02-17T17:50:49.992Z,2.00
2023-02-17T17:53:17.280Z,1.80
2023-02-17T17:55:45.570Z,2.40
2023-02-17T17:58:12.721Z,1.90
2023-02-17T18:00:39.889Z,1.80
2023-02-17T18:03:07.376Z,1.53
2023-02-17T18:05:36.328Z,1.80
2023-02-17T18:08:03.978Z,1.83
2023-02-17T18:10:32.420Z,1.70
2023-02-17T18:12:59.830Z,2.40
2023-02-17T18:15:27.090Z,1.40
2023-02-17T18:17:54.382Z,1.90
2023-02-17T18:20:21.711Z,1.60
2023-02-17T18:22:48.849Z,1.70
2023-02-17T18:25:16.392Z,2.03
2023-02-17T18:27:46.394Z,1.67
2023-02-17T18:30:16.786Z,2.50
2023-02-17T18:32:44.433Z,2.67
2023-02-17T18:35:12.733Z,2.47
2023-02-17T18:37:41.233Z,2.23
2023-02-17T18:40:12.611Z,2.13
2023-02-17T18:42:45.521Z,2.10
2023-02-17T18:45:13.496Z,2.97
2023-02-17T18:47:40.744Z,2.27
2023-02-17T18:50:09.833Z,2.00
2023-02-17T18:52:39.726Z,1.83
2023-02-17T18:55:07.525Z,2.30
2023-02-17T18:57:36.594Z,1.90
2023-02-17T19:00:06.304Z,1.50
2023-02-17T19:02:37.349Z,1.23
2023-02-17T19:05:05.663Z,2.03
2023-02-17T19:07:34.400Z,2.20
2023-02-17T19:10:02.312Z,2.20
2023-02-17T19:12:29.551Z,2.20
2023-02-17T19:14:57.105Z,2.37
2023-02-17T19:17:25.190Z,1.20
2023-02-17T19:19:52.736Z,1.77
2023-02-17T19:22:20.350Z,2.00
2023-02-17T19:24:51.682Z,1.60
2023-02-17T19:27:19.041Z,1.63
2023-02-17T19:29:46.742Z,1.10
2023-02-17T19:32:14.023Z,1.43
2023-02-17T19:34:41.340Z,1.87
2023-02-17T19:37:08.758Z,1.70
2023-02-17T19:39:36.233Z,2.07
2023-02-17T19:42:04.556Z,2.70
2023-02-17T19:44:32.380Z,1.90
2023-02-17T19:47:00.878Z,1.30
2023-02-17T19:49:28.110Z,1.97
2023-02-17T19:51:55.937Z,2.10
2023-02-17T19:54:24.360Z,2.30
2023-02-17T19:56:52.081Z,1.60
2023-02-17T19:59:19.635Z,1.50
2023-02-17T20:01:47.545Z,1.40
2023-02-17T20:04:15.038Z,1.60
2023-02-17T20:06:45.908Z,1.80
2023-02-17T20:09:19.500Z,1.20
2023-02-17T20:11:48.211Z,1.50
2023-02-17T20:14:15.444Z,1.30
2023-02-17T20:16:42.698Z,1.47
2023-02-17T20:19:09.864Z,1.10
2023-02-17T20:21:38.678Z,1.40
2023-02-17T20:24:06.246Z,1.10
2023-02-17T20:26:38.008Z,0.80
2023-02-17T20:29:05.419Z,0.93
2023-02-17T20:31:34.086Z,1.00
2023-02-17T20:34:04.044Z,0.93
2023-02-17T20:36:31.508Z,0.60
2023-02-17T20:38:59.115Z,0.90
2023-02-17T20:41:26.369Z,1.40
2023-02-17T20:43:53.624Z,1.67
2023-02-17T20:46:24.938Z,1.27
2023-02-17T20:48:53.481Z,1.23
2023-02-17T20:51:21.066Z,2.10
2023-02-17T20:53:48.520Z,2.20
2023-02-17T20:56:22.329Z,2.00
2023-02-17T20:58:50.846Z,2.17
2023-02-17T21:01:19.913Z,0.80
2023-02-17T21:03:47.497Z,0.80
2023-02-17T21:06:25.353Z,1.10
2023-02-17T21:09:17.710Z,1.00
2023-02-17T21:11:46.771Z,0.83
2023-02-17T21:14:14.614Z,0.80
2023-02-17T21:16:41.848Z,0.83
2023-02-17T21:19:09.475Z,0.80
2023-02-17T21:21:37.101Z,0.80
2023-02-17T21:24:04.861Z,1.70
2023-02-17T21:26:33.243Z,1.93
2023-02-17T21:29:00.419Z,1.60
2023-02-17T21:31:29.288Z,2.00
2023-02-17T21:33:58.500Z,2.80
2023-02-17T21:36:27.459Z,1.67
2023-02-17T21:38:56.176Z,1.87
2023-02-17T21:41:26.554Z,2.00
2023-02-17T21:44:13.227Z,2.07
2023-02-17T21:46:42.979Z,1.30
2023-02-17T21:49:11.724Z,0.90
2023-02-17T21:51:40.588Z,0.53
2023-02-17T21:54:09.609Z,0.40
2023-02-17T21:56:37.180Z,0.50
2023-02-17T21:59:04.896Z,0.50
2023-02-17T22:01:32.412Z,0.57
2023-02-17T22:03:59.738Z,0.50
2023-02-17T22:06:33.147Z,0.60
2023-02-17T22:09:00.292Z,0.60
2023-02-17T22:11:33.165Z,0.60
2023-02-17T22:14:06.154Z,0.43
2023-02-17T22:16:35.568Z,0.50
2023-02-17T22:19:03.956Z,0.70
2023-02-17T22:21:31.429Z,0.50
2023-02-17T22:23:59.706Z,0.50
2023-02-17T22:26:28.593Z,0.57
2023-02-17T22:28:56.303Z,0.70
2023-02-17T22:31:27.212Z,0.80
2023-02-17T22:33:56.949Z,0.57
2023-02-17T22:36:25.342Z,0.50
2023-02-17T22:38:53.963Z,0.60
2023-02-17T22:41:23.811Z,0.60
2023-02-17T22:43:51.703Z,0.70
2023-02-17T22:46:21.794Z,0.50
2023-02-17T22:48:52.005Z,0.70
2023-02-17T22:51:22.132Z,0.60
2023-02-17T22:53:49.707Z,0.60
2023-02-17T22:56:17.064Z,0.50
2023-02-17T22:58:44.257Z,0.70
2023-02-17T23:01:23.117Z,0.57
2023-02-17T23:03:53.015Z,0.70
2023-02-17T23:06:24.811Z,0.50
2023-02-17T23:08:52.959Z,0.50
2023-02-17T23:11:43.067Z,0.60
2023-02-17T23:14:12.352Z,0.50
2023-02-17T23:16:40.126Z,0.50
2023-02-17T23:19:10.935Z,0.70
2023-02-17T23:21:42.019Z,0.63
2023-02-17T23:24:09.222Z,0.50
2023-02-17T23:26:36.358Z,0.50
2023-02-17T23:29:04.411Z,0.60
2023-02-17T23:31:31.774Z,0.50
2023-02-17T23:33:59.069Z,0.50
2023-02-17T23:36:26.324Z,0.50
2023-02-17T23:38:55.607Z,0.40
2023-02-17T23:41:22.958Z,0.40
2023-02-17T23:43:50.140Z,0.60
2023-02-17T23:46:17.466Z,0.50
2023-02-17T23:48:44.702Z,0.50
2023-02-17T23:51:18.907Z,0.67
2023-02-17T23:53:46.897Z,0.50
2023-02-17T23:56:19.744Z,0.50
2023-02-17T23:58:47.062Z,0.60
